Toyo Eagle — H3LY — position and weather

sailwx.info

Track history (hours):
 
Tides and Currents Weather Stations Pressure Air Temp Water Temp Dewpoint Dewpoint Depression Visibility Wind Speed Wind Dir Waves Ship Positions

Toyo Eagle

Last reported at 2016-Apr-28 14:05 UTC. Time now 2016-May-02 06:01 UTC.
Position N 01°16' E 104°13'.

Length 108 m; draft 5 m.

Type: Cargo ship. MMSI: 355327000.

Date/timePositionNaut miles runAvg speedWind from/ knotsBaromVisibWave heightAir tempDewpointWater temp
2016-Apr-28 14:05N 01°16' E 104°13'712.1
2016-Apr-28 13:28N 01°15' E 104°05'1112.1
2016-Apr-28 12:33N 01°12' E 103°55'  
2016-Apr-25 10:33N 01°54' E 102°24'1513.1
2016-Apr-25 09:23N 01°47' E 102°37'6211.8
2016-Apr-25 04:07N 01°13' E 103°29'711.6
2016-Apr-25 03:32N 01°12' E 103°36'1111.0
2016-Apr-25 02:33N 01°10' E 103°47'1312.6
2016-Apr-25 01:33N 01°15' E 103°58'  
Track history (hours):
 
Tides and Currents Weather Stations Pressure Air Temp Water Temp Dewpoint Dewpoint Depression Visibility Wind Speed Wind Dir Waves Ship Positions

Toyo Eagle

Last reported at 2016-Apr-28 14:05 UTC. Time now 2016-May-02 06:01 UTC.
Position N 01°16' E 104°13'.

Length 108 m; draft 5 m.

Type: Cargo ship. MMSI: 355327000.

Date/timePositionNaut miles runAvg speedWind from/ knotsBaromVisibWave heightAir tempDewpointWater temp
2016-Apr-28 14:05N 01°16' E 104°13'712.1
2016-Apr-28 13:28N 01°15' E 104°05'1112.1
2016-Apr-28 12:33N 01°12' E 103°55'  
2016-Apr-25 10:33N 01°54' E 102°24'1513.1
2016-Apr-25 09:23N 01°47' E 102°37'6211.8
2016-Apr-25 04:07N 01°13' E 103°29'711.6
2016-Apr-25 03:32N 01°12' E 103°36'1111.0
2016-Apr-25 02:33N 01°10' E 103°47'1312.6
2016-Apr-25 01:33N 01°15' E 103°58'  

Dump ship's entire track history